sensor_id;sensor_type;location;lat;lon;timestamp;temperature;humidity
316;DHT22;14128;48.686;9.738;2022-09-27T00:01:15;10.10;1.40
316;DHT22;14128;48.686;9.738;2022-09-27T00:03:42;10.00;1.40
316;DHT22;14128;48.686;9.738;2022-09-27T00:06:14;10.00;1.40
316;DHT22;14128;48.686;9.738;2022-09-27T00:08:42;10.00;1.40
316;DHT22;14128;48.686;9.738;2022-09-27T00:11:14;10.00;1.40
316;DHT22;14128;48.686;9.738;2022-09-27T00:13:43;10.00;1.40
316;DHT22;14128;48.686;9.738;2022-09-27T00:16:10;10.00;1.40
316;DHT22;14128;48.686;9.738;2022-09-27T00:18:37;10.10;1.40
316;DHT22;14128;48.686;9.738;2022-09-27T00:21:06;10.20;1.40
316;DHT22;14128;48.686;9.738;2022-09-27T00:23:35;10.30;1.40
316;DHT22;14128;48.686;9.738;2022-09-27T00:26:03;10.40;1.40
316;DHT22;14128;48.686;9.738;2022-09-27T00:28:30;10.50;1.40
316;DHT22;14128;48.686;9.738;2022-09-27T00:30:58;10.50;1.40
316;DHT22;14128;48.686;9.738;2022-09-27T00:33:25;10.50;1.40
316;DHT22;14128;48.686;9.738;2022-09-27T00:35:52;10.50;1.40
316;DHT22;14128;48.686;9.738;2022-09-27T00:38:19;10.50;1.40
316;DHT22;14128;48.686;9.738;2022-09-27T00:40:48;10.50;1.40
316;DHT22;14128;48.686;9.738;2022-09-27T00:43:18;10.50;1.40
316;DHT22;14128;48.686;9.738;2022-09-27T00:45:47;10.40;1.40
316;DHT22;14128;48.686;9.738;2022-09-27T00:48:17;10.40;1.40
316;DHT22;14128;48.686;9.738;2022-09-27T00:50:49;10.40;1.40
316;DHT22;14128;48.686;9.738;2022-09-27T00:53:21;10.30;1.40
316;DHT22;14128;48.686;9.738;2022-09-27T00:55:53;10.30;1.40
316;DHT22;14128;48.686;9.738;2022-09-27T00:58:25;10.30;1.40
316;DHT22;14128;48.686;9.738;2022-09-27T01:00:57;10.30;1.40
316;DHT22;14128;48.686;9.738;2022-09-27T01:03:30;10.30;1.40
316;DHT22;14128;48.686;9.738;2022-09-27T01:06:00;10.20;1.40
316;DHT22;14128;48.686;9.738;2022-09-27T01:08:28;10.20;1.40
316;DHT22;14128;48.686;9.738;2022-09-27T01:11:06;10.20;1.40
316;DHT22;14128;48.686;9.738;2022-09-27T01:13:41;10.20;1.40
316;DHT22;14128;48.686;9.738;2022-09-27T01:16:17;10.20;1.40
316;DHT22;14128;48.686;9.738;2022-09-27T01:18:57;10.20;1.40
316;DHT22;14128;48.686;9.738;2022-09-27T01:21:44;10.10;1.40
316;DHT22;14128;48.686;9.738;2022-09-27T01:30:26;10.10;1.40
316;DHT22;14128;48.686;9.738;2022-09-27T01:33:21;10.10;1.40
316;DHT22;14128;48.686;9.738;2022-09-27T01:36:04;10.10;1.40
316;DHT22;14128;48.686;9.738;2022-09-27T01:38:40;10.20;1.40
316;DHT22;14128;48.686;9.738;2022-09-27T01:41:14;10.20;1.40
316;DHT22;14128;48.686;9.738;2022-09-27T01:43:49;10.20;1.40
316;DHT22;14128;48.686;9.738;2022-09-27T01:46:23;10.20;1.40
316;DHT22;14128;48.686;9.738;2022-09-27T01:48:52;10.20;1.40
316;DHT22;14128;48.686;9.738;2022-09-27T01:51:22;10.20;1.40
316;DHT22;14128;48.686;9.738;2022-09-27T01:53:52;10.20;1.40
316;DHT22;14128;48.686;9.738;2022-09-27T01:56:24;10.20;1.40
316;DHT22;14128;48.686;9.738;2022-09-27T01:58:57;10.30;1.40
316;DHT22;14128;48.686;9.738;2022-09-27T02:01:29;10.30;1.40
316;DHT22;14128;48.686;9.738;2022-09-27T02:03:58;10.30;1.40
316;DHT22;14128;48.686;9.738;2022-09-27T02:06:30;10.30;1.40
316;DHT22;14128;48.686;9.738;2022-09-27T02:09:04;10.40;1.40
316;DHT22;14128;48.686;9.738;2022-09-27T02:11:33;10.40;1.40
316;DHT22;14128;48.686;9.738;2022-09-27T02:14:04;10.40;1.40
316;DHT22;14128;48.686;9.738;2022-09-27T02:16:44;10.40;1.40
316;DHT22;14128;48.686;9.738;2022-09-27T02:19:20;10.40;1.40
316;DHT22;14128;48.686;9.738;2022-09-27T02:21:56;10.40;1.40
316;DHT22;14128;48.686;9.738;2022-09-27T02:24:32;10.40;1.40
316;DHT22;14128;48.686;9.738;2022-09-27T02:27:07;10.30;1.40
316;DHT22;14128;48.686;9.738;2022-09-27T02:29:38;10.30;1.40
316;DHT22;14128;48.686;9.738;2022-09-27T02:32:09;10.40;1.40
316;DHT22;14128;48.686;9.738;2022-09-27T02:34:37;10.40;1.40
316;DHT22;14128;48.686;9.738;2022-09-27T02:37:05;10.50;1.40
316;DHT22;14128;48.686;9.738;2022-09-27T02:39:32;10.60;1.40
316;DHT22;14128;48.686;9.738;2022-09-27T02:41:59;10.60;1.40
316;DHT22;14128;48.686;9.738;2022-09-27T02:44:28;10.60;1.40
316;DHT22;14128;48.686;9.738;2022-09-27T02:47:15;10.60;1.40
316;DHT22;14128;48.686;9.738;2022-09-27T02:49:55;10.60;1.40
316;DHT22;14128;48.686;9.738;2022-09-27T02:52:31;10.60;1.40
316;DHT22;14128;48.686;9.738;2022-09-27T02:55:11;10.60;1.40
316;DHT22;14128;48.686;9.738;2022-09-27T02:57:50;10.60;1.40
316;DHT22;14128;48.686;9.738;2022-09-27T03:00:25;10.20;1.40
316;DHT22;14128;48.686;9.738;2022-09-27T03:03:01;9.90;1.40
316;DHT22;14128;48.686;9.738;2022-09-27T03:05:32;9.60;1.40
316;DHT22;14128;48.686;9.738;2022-09-27T03:08:01;9.40;1.40
316;DHT22;14128;48.686;9.738;2022-09-27T03:10:29;9.30;1.40
316;DHT22;14128;48.686;9.738;2022-09-27T03:12:56;9.30;1.40
316;DHT22;14128;48.686;9.738;2022-09-27T03:15:24;9.20;1.40
316;DHT22;14128;48.686;9.738;2022-09-27T03:17:51;9.20;1.40
316;DHT22;14128;48.686;9.738;2022-09-27T03:20:19;9.20;1.40
316;DHT22;14128;48.686;9.738;2022-09-27T03:22:46;9.20;1.40
316;DHT22;14128;48.686;9.738;2022-09-27T03:25:13;9.20;1.40
316;DHT22;14128;48.686;9.738;2022-09-27T03:27:40;9.20;1.40
316;DHT22;14128;48.686;9.738;2022-09-27T03:30:08;9.20;1.40
316;DHT22;14128;48.686;9.738;2022-09-27T03:32:35;9.20;1.40
316;DHT22;14128;48.686;9.738;2022-09-27T03:35:03;9.10;1.40
316;DHT22;14128;48.686;9.738;2022-09-27T03:37:31;9.10;1.40
316;DHT22;14128;48.686;9.738;2022-09-27T03:39:58;9.10;1.40
316;DHT22;14128;48.686;9.738;2022-09-27T03:42:25;9.00;1.40
316;DHT22;14128;48.686;9.738;2022-09-27T03:44:52;8.90;1.40
316;DHT22;14128;48.686;9.738;2022-09-27T03:47:18;9.00;1.40
316;DHT22;14128;48.686;9.738;2022-09-27T03:49:45;8.90;1.40
316;DHT22;14128;48.686;9.738;2022-09-27T03:52:12;8.80;1.40
316;DHT22;14128;48.686;9.738;2022-09-27T03:54:41;8.80;1.40
316;DHT22;14128;48.686;9.738;2022-09-27T03:57:08;8.80;1.40
316;DHT22;14128;48.686;9.738;2022-09-27T03:59:34;8.70;1.40
316;DHT22;14128;48.686;9.738;2022-09-27T04:02:01;8.70;1.40
316;DHT22;14128;48.686;9.738;2022-09-27T04:04:28;8.70;1.40
316;DHT22;14128;48.686;9.738;2022-09-27T04:06:56;8.70;1.40
316;DHT22;14128;48.686;9.738;2022-09-27T04:09:23;8.70;1.40
316;DHT22;14128;48.686;9.738;2022-09-27T04:11:52;8.60;1.40
316;DHT22;14128;48.686;9.738;2022-09-27T04:14:19;8.60;1.40
316;DHT22;14128;48.686;9.738;2022-09-27T04:16:46;8.60;1.40
316;DHT22;14128;48.686;9.738;2022-09-27T04:19:13;8.60;1.40
316;DHT22;14128;48.686;9.738;2022-09-27T04:21:40;8.60;1.40
316;DHT22;14128;48.686;9.738;2022-09-27T04:24:07;8.60;1.40
316;DHT22;14128;48.686;9.738;2022-09-27T04:26:36;8.60;1.40
316;DHT22;14128;48.686;9.738;2022-09-27T04:29:05;8.70;1.40
316;DHT22;14128;48.686;9.738;2022-09-27T04:31:34;8.70;1.40
316;DHT22;14128;48.686;9.738;2022-09-27T04:34:03;8.80;1.40
316;DHT22;14128;48.686;9.738;2022-09-27T04:36:30;8.90;1.40
316;DHT22;14128;48.686;9.738;2022-09-27T04:38:59;8.90;1.40
316;DHT22;14128;48.686;9.738;2022-09-27T04:41:27;8.90;1.40
316;DHT22;14128;48.686;9.738;2022-09-27T04:43:55;9.00;1.40
316;DHT22;14128;48.686;9.738;2022-09-27T04:46:23;9.00;1.40
316;DHT22;14128;48.686;9.738;2022-09-27T04:48:50;9.00;1.40
316;DHT22;14128;48.686;9.738;2022-09-27T04:51:17;9.00;1.40
316;DHT22;14128;48.686;9.738;2022-09-27T04:53:45;9.00;1.40
316;DHT22;14128;48.686;9.738;2022-09-27T04:56:12;9.10;1.40
316;DHT22;14128;48.686;9.738;2022-09-27T04:58:40;9.00;1.40
316;DHT22;14128;48.686;9.738;2022-09-27T05:01:07;9.00;1.40
316;DHT22;14128;48.686;9.738;2022-09-27T05:03:36;9.00;1.40
316;DHT22;14128;48.686;9.738;2022-09-27T05:06:03;8.90;1.40
316;DHT22;14128;48.686;9.738;2022-09-27T05:08:30;8.90;1.40
316;DHT22;14128;48.686;9.738;2022-09-27T05:10:57;8.90;1.40
316;DHT22;14128;48.686;9.738;2022-09-27T05:13:25;8.90;1.40
316;DHT22;14128;48.686;9.738;2022-09-27T05:15:52;8.90;1.40
316;DHT22;14128;48.686;9.738;2022-09-27T05:18:19;8.90;1.40
316;DHT22;14128;48.686;9.738;2022-09-27T05:20:49;8.90;1.40
316;DHT22;14128;48.686;9.738;2022-09-27T05:23:17;8.90;1.40
316;DHT22;14128;48.686;9.738;2022-09-27T05:25:44;8.90;1.40
316;DHT22;14128;48.686;9.738;2022-09-27T05:28:11;8.80;1.40
316;DHT22;14128;48.686;9.738;2022-09-27T05:30:38;8.80;1.40
316;DHT22;14128;48.686;9.738;2022-09-27T05:33:05;8.80;1.40
316;DHT22;14128;48.686;9.738;2022-09-27T05:35:32;8.80;1.40
316;DHT22;14128;48.686;9.738;2022-09-27T05:38:01;8.80;1.40
316;DHT22;14128;48.686;9.738;2022-09-27T05:40:28;8.80;1.40
316;DHT22;14128;48.686;9.738;2022-09-27T05:42:55;8.80;1.40
316;DHT22;14128;48.686;9.738;2022-09-27T05:45:23;8.80;1.40
316;DHT22;14128;48.686;9.738;2022-09-27T05:47:54;8.80;1.40
316;DHT22;14128;48.686;9.738;2022-09-27T05:50:21;8.90;1.40
316;DHT22;14128;48.686;9.738;2022-09-27T05:52:48;8.90;1.40
316;DHT22;14128;48.686;9.738;2022-09-27T05:55:17;8.80;1.40
316;DHT22;14128;48.686;9.738;2022-09-27T05:57:53;8.80;1.40
316;DHT22;14128;48.686;9.738;2022-09-27T06:00:21;8.80;1.40
316;DHT22;14128;48.686;9.738;2022-09-27T06:02:52;8.80;1.40
316;DHT22;14128;48.686;9.738;2022-09-27T06:05:20;8.80;1.40
316;DHT22;14128;48.686;9.738;2022-09-27T06:07:47;8.70;1.40
316;DHT22;14128;48.686;9.738;2022-09-27T06:10:17;8.70;1.40
316;DHT22;14128;48.686;9.738;2022-09-27T06:12:44;8.70;1.40
316;DHT22;14128;48.686;9.738;2022-09-27T06:15:11;8.70;1.40
316;DHT22;14128;48.686;9.738;2022-09-27T06:17:39;8.80;1.40
316;DHT22;14128;48.686;9.738;2022-09-27T06:20:07;8.80;1.40
316;DHT22;14128;48.686;9.738;2022-09-27T06:22:34;8.80;1.40
316;DHT22;14128;48.686;9.738;2022-09-27T06:25:02;8.80;1.40
316;DHT22;14128;48.686;9.738;2022-09-27T06:27:30;8.80;1.40
316;DHT22;14128;48.686;9.738;2022-09-27T06:29:57;8.80;1.40
316;DHT22;14128;48.686;9.738;2022-09-27T06:32:24;8.80;1.40
316;DHT22;14128;48.686;9.738;2022-09-27T06:34:51;8.70;1.40
316;DHT22;14128;48.686;9.738;2022-09-27T06:37:18;8.80;1.40
316;DHT22;14128;48.686;9.738;2022-09-27T06:39:45;8.80;1.40
316;DHT22;14128;48.686;9.738;2022-09-27T06:42:13;8.80;1.40
316;DHT22;14128;48.686;9.738;2022-09-27T06:44:44;8.90;1.40
316;DHT22;14128;48.686;9.738;2022-09-27T06:47:14;8.90;1.40
316;DHT22;14128;48.686;9.738;2022-09-27T06:49:41;8.90;1.40
316;DHT22;14128;48.686;9.738;2022-09-27T06:52:08;9.10;1.40
316;DHT22;14128;48.686;9.738;2022-09-27T06:54:36;9.20;1.40
316;DHT22;14128;48.686;9.738;2022-09-27T06:57:03;9.30;1.40
316;DHT22;14128;48.686;9.738;2022-09-27T06:59:30;9.40;1.40
316;DHT22;14128;48.686;9.738;2022-09-27T07:02:15;9.40;1.40
316;DHT22;14128;48.686;9.738;2022-09-27T07:04:43;9.60;1.40
316;DHT22;14128;48.686;9.738;2022-09-27T07:07:10;9.70;1.40
316;DHT22;14128;48.686;9.738;2022-09-27T07:09:37;9.70;1.40
316;DHT22;14128;48.686;9.738;2022-09-27T07:12:05;9.70;1.40
316;DHT22;14128;48.686;9.738;2022-09-27T07:14:32;9.80;1.40
316;DHT22;14128;48.686;9.738;2022-09-27T07:16:59;9.80;1.40
316;DHT22;14128;48.686;9.738;2022-09-27T07:19:28;9.70;1.40
316;DHT22;14128;48.686;9.738;2022-09-27T07:21:55;9.50;1.40
316;DHT22;14128;48.686;9.738;2022-09-27T07:24:22;9.50;1.40
316;DHT22;14128;48.686;9.738;2022-09-27T07:26:48;9.50;1.40
316;DHT22;14128;48.686;9.738;2022-09-27T07:29:15;9.50;1.40
316;DHT22;14128;48.686;9.738;2022-09-27T07:31:42;9.60;1.40
316;DHT22;14128;48.686;9.738;2022-09-27T07:34:09;9.80;1.40
316;DHT22;14128;48.686;9.738;2022-09-27T07:36:38;10.00;1.40
316;DHT22;14128;48.686;9.738;2022-09-27T07:39:05;10.10;1.40
316;DHT22;14128;48.686;9.738;2022-09-27T07:41:32;10.10;1.40
316;DHT22;14128;48.686;9.738;2022-09-27T07:43:59;10.20;1.40
316;DHT22;14128;48.686;9.738;2022-09-27T07:46:26;10.50;1.40
316;DHT22;14128;48.686;9.738;2022-09-27T07:48:55;10.90;1.40
316;DHT22;14128;48.686;9.738;2022-09-27T07:51:22;10.70;1.40
316;DHT22;14128;48.686;9.738;2022-09-27T07:53:50;10.70;1.40
316;DHT22;14128;48.686;9.738;2022-09-27T07:56:17;10.70;1.40
316;DHT22;14128;48.686;9.738;2022-09-27T07:58:44;10.70;1.40
316;DHT22;14128;48.686;9.738;2022-09-27T08:01:12;10.50;1.40
316;DHT22;14128;48.686;9.738;2022-09-27T08:03:39;10.40;1.40
316;DHT22;14128;48.686;9.738;2022-09-27T08:06:06;10.30;1.40
316;DHT22;14128;48.686;9.738;2022-09-27T08:08:33;10.30;1.40
316;DHT22;14128;48.686;9.738;2022-09-27T08:11:09;10.40;1.40
316;DHT22;14128;48.686;9.738;2022-09-27T08:13:36;10.60;1.40
316;DHT22;14128;48.686;9.738;2022-09-27T08:16:04;10.60;1.40
316;DHT22;14128;48.686;9.738;2022-09-27T08:18:31;10.40;1.40
316;DHT22;14128;48.686;9.738;2022-09-27T08:20:59;10.30;1.40
316;DHT22;14128;48.686;9.738;2022-09-27T08:23:26;10.30;1.40
316;DHT22;14128;48.686;9.738;2022-09-27T08:25:53;10.20;1.40
316;DHT22;14128;48.686;9.738;2022-09-27T08:28:25;10.30;1.40
316;DHT22;14128;48.686;9.738;2022-09-27T08:30:52;10.50;1.40
316;DHT22;14128;48.686;9.738;2022-09-27T08:33:19;10.50;1.40
316;DHT22;14128;48.686;9.738;2022-09-27T08:35:46;10.60;1.40
316;DHT22;14128;48.686;9.738;2022-09-27T08:38:13;10.80;1.40
316;DHT22;14128;48.686;9.738;2022-09-27T08:40:48;10.80;1.40
316;DHT22;14128;48.686;9.738;2022-09-27T08:43:31;10.90;1.40
316;DHT22;14128;48.686;9.738;2022-09-27T08:46:09;11.20;1.40
316;DHT22;14128;48.686;9.738;2022-09-27T08:48:37;11.20;1.40
316;DHT22;14128;48.686;9.738;2022-09-27T08:51:05;11.30;1.40
316;DHT22;14128;48.686;9.738;2022-09-27T08:53:39;11.00;1.40
316;DHT22;14128;48.686;9.738;2022-09-27T08:56:08;11.10;1.40
316;DHT22;14128;48.686;9.738;2022-09-27T08:58:42;11.10;1.40
316;DHT22;14128;48.686;9.738;2022-09-27T09:01:13;11.20;1.40
316;DHT22;14128;48.686;9.738;2022-09-27T09:03:44;11.30;1.40
316;DHT22;14128;48.686;9.738;2022-09-27T09:06:17;11.40;1.40
316;DHT22;14128;48.686;9.738;2022-09-27T09:11:47;11.70;1.40
316;DHT22;14128;48.686;9.738;2022-09-27T09:17:43;12.60;1.40
316;DHT22;14128;48.686;9.738;2022-09-27T09:20:31;12.70;1.40
316;DHT22;14128;48.686;9.738;2022-09-27T09:26:03;12.60;1.40
316;DHT22;14128;48.686;9.738;2022-09-27T09:28:43;12.60;1.40
316;DHT22;14128;48.686;9.738;2022-09-27T09:31:21;12.80;1.40
316;DHT22;14128;48.686;9.738;2022-09-27T09:33:54;12.40;1.40
316;DHT22;14128;48.686;9.738;2022-09-27T09:36:28;11.70;1.40
316;DHT22;14128;48.686;9.738;2022-09-27T09:39:00;10.90;1.40
316;DHT22;14128;48.686;9.738;2022-09-27T09:41:33;10.40;1.40
316;DHT22;14128;48.686;9.738;2022-09-27T09:44:13;9.90;1.40
316;DHT22;14128;48.686;9.738;2022-09-27T09:46:46;9.60;1.40
316;DHT22;14128;48.686;9.738;2022-09-27T09:49:19;10.00;1.40
316;DHT22;14128;48.686;9.738;2022-09-27T09:51:51;10.50;1.40
316;DHT22;14128;48.686;9.738;2022-09-27T09:54:25;10.60;1.40
316;DHT22;14128;48.686;9.738;2022-09-27T09:56:58;10.50;1.40
316;DHT22;14128;48.686;9.738;2022-09-27T09:59:29;10.40;1.40
316;DHT22;14128;48.686;9.738;2022-09-27T10:02:16;10.30;1.40
316;DHT22;14128;48.686;9.738;2022-09-27T10:04:44;10.00;1.40
316;DHT22;14128;48.686;9.738;2022-09-27T10:07:11;10.10;1.40
316;DHT22;14128;48.686;9.738;2022-09-27T10:09:39;10.40;1.40
316;DHT22;14128;48.686;9.738;2022-09-27T10:12:06;10.90;1.40
316;DHT22;14128;48.686;9.738;2022-09-27T10:14:33;11.20;1.40
316;DHT22;14128;48.686;9.738;2022-09-27T10:17:05;11.40;1.40
316;DHT22;14128;48.686;9.738;2022-09-27T10:19:35;11.60;1.40
316;DHT22;14128;48.686;9.738;2022-09-27T10:22:16;11.40;1.40
316;DHT22;14128;48.686;9.738;2022-09-27T10:24:55;11.40;1.40
316;DHT22;14128;48.686;9.738;2022-09-27T10:27:24;11.40;1.40
316;DHT22;14128;48.686;9.738;2022-09-27T10:30:00;11.40;1.40
316;DHT22;14128;48.686;9.738;2022-09-27T10:32:31;11.50;1.40
316;DHT22;14128;48.686;9.738;2022-09-27T10:35:33;11.40;1.40
316;DHT22;14128;48.686;9.738;2022-09-27T10:38:20;11.30;1.40
316;DHT22;14128;48.686;9.738;2022-09-27T10:40:48;11.30;1.40
316;DHT22;14128;48.686;9.738;2022-09-27T10:43:30;11.40;1.40
316;DHT22;14128;48.686;9.738;2022-09-27T10:46:12;11.70;1.40
316;DHT22;14128;48.686;9.738;2022-09-27T10:48:42;12.30;1.40
316;DHT22;14128;48.686;9.738;2022-09-27T10:51:24;12.50;1.40
316;DHT22;14128;48.686;9.738;2022-09-27T10:53:52;12.60;1.40
316;DHT22;14128;48.686;9.738;2022-09-27T10:56:26;12.80;1.40
316;DHT22;14128;48.686;9.738;2022-09-27T10:58:54;13.00;1.40
316;DHT22;14128;48.686;9.738;2022-09-27T11:01:21;13.40;1.40
316;DHT22;14128;48.686;9.738;2022-09-27T11:03:53;13.40;1.40
316;DHT22;14128;48.686;9.738;2022-09-27T11:06:28;13.30;1.40
316;DHT22;14128;48.686;9.738;2022-09-27T11:09:11;13.40;1.40
316;DHT22;14128;48.686;9.738;2022-09-27T11:11:43;13.40;1.40
316;DHT22;14128;48.686;9.738;2022-09-27T11:14:21;13.00;1.40
316;DHT22;14128;48.686;9.738;2022-09-27T11:17:07;12.90;1.40
316;DHT22;14128;48.686;9.738;2022-09-27T11:19:51;12.70;1.40
316;DHT22;14128;48.686;9.738;2022-09-27T11:22:47;12.40;1.40
316;DHT22;14128;48.686;9.738;2022-09-27T11:25:24;12.30;1.40
316;DHT22;14128;48.686;9.738;2022-09-27T11:28:01;12.20;1.40
316;DHT22;14128;48.686;9.738;2022-09-27T11:30:34;12.10;1.40
316;DHT22;14128;48.686;9.738;2022-09-27T11:33:24;12.40;1.40
316;DHT22;14128;48.686;9.738;2022-09-27T11:36:03;12.70;1.40
316;DHT22;14128;48.686;9.738;2022-09-27T11:38:38;13.20;1.40
316;DHT22;14128;48.686;9.738;2022-09-27T11:41:34;13.30;1.40
316;DHT22;14128;48.686;9.738;2022-09-27T11:47:10;14.60;1.40
316;DHT22;14128;48.686;9.738;2022-09-27T11:50:02;15.40;1.40
316;DHT22;14128;48.686;9.738;2022-09-27T11:52:46;15.50;1.40
316;DHT22;14128;48.686;9.738;2022-09-27T11:55:29;15.60;1.40
316;DHT22;14128;48.686;9.738;2022-09-27T11:58:07;15.50;1.40
316;DHT22;14128;48.686;9.738;2022-09-27T12:00:46;15.20;1.40
316;DHT22;14128;48.686;9.738;2022-09-27T12:03:51;14.70;1.40
316;DHT22;14128;48.686;9.738;2022-09-27T12:06:25;14.40;1.40
316;DHT22;14128;48.686;9.738;2022-09-27T12:09:06;14.40;1.40
316;DHT22;14128;48.686;9.738;2022-09-27T12:11:39;14.60;1.40
316;DHT22;14128;48.686;9.738;2022-09-27T12:14:13;15.10;1.40
316;DHT22;14128;48.686;9.738;2022-09-27T12:16:43;15.30;1.40
316;DHT22;14128;48.686;9.738;2022-09-27T12:19:16;15.80;1.40
316;DHT22;14128;48.686;9.738;2022-09-27T12:21:44;15.80;1.40
316;DHT22;14128;48.686;9.738;2022-09-27T12:24:18;15.90;1.40
316;DHT22;14128;48.686;9.738;2022-09-27T12:26:48;16.00;1.40
316;DHT22;14128;48.686;9.738;2022-09-27T12:29:21;16.00;1.40
316;DHT22;14128;48.686;9.738;2022-09-27T12:31:55;16.20;1.40
316;DHT22;14128;48.686;9.738;2022-09-27T12:34:27;16.70;1.40
316;DHT22;14128;48.686;9.738;2022-09-27T12:36:59;16.60;1.40
316;DHT22;14128;48.686;9.738;2022-09-27T12:39:40;16.70;1.40
316;DHT22;14128;48.686;9.738;2022-09-27T12:42:15;15.60;1.40
316;DHT22;14128;48.686;9.738;2022-09-27T12:44:43;14.50;1.40
316;DHT22;14128;48.686;9.738;2022-09-27T12:47:19;13.70;1.40
316;DHT22;14128;48.686;9.738;2022-09-27T12:49:58;13.10;1.40
316;DHT22;14128;48.686;9.738;2022-09-27T12:52:32;12.50;1.40
316;DHT22;14128;48.686;9.738;2022-09-27T12:55:24;11.90;1.40
316;DHT22;14128;48.686;9.738;2022-09-27T12:58:19;11.40;1.40
316;DHT22;14128;48.686;9.738;2022-09-27T13:00:53;11.00;1.40
316;DHT22;14128;48.686;9.738;2022-09-27T13:06:46;9.70;1.40
316;DHT22;14128;48.686;9.738;2022-09-27T13:09:38;9.20;1.40
316;DHT22;14128;48.686;9.738;2022-09-27T13:12:12;8.80;1.40
316;DHT22;14128;48.686;9.738;2022-09-27T13:14:43;8.50;1.40
316;DHT22;14128;48.686;9.738;2022-09-27T13:17:46;8.30;1.40
316;DHT22;14128;48.686;9.738;2022-09-27T13:29:29;8.60;1.40
316;DHT22;14128;48.686;9.738;2022-09-27T13:32:19;9.00;1.40
316;DHT22;14128;48.686;9.738;2022-09-27T13:34:48;9.50;1.40
316;DHT22;14128;48.686;9.738;2022-09-27T13:37:47;9.90;1.40
316;DHT22;14128;48.686;9.738;2022-09-27T13:40:30;10.10;1.40
316;DHT22;14128;48.686;9.738;2022-09-27T13:43:21;9.90;1.40
316;DHT22;14128;48.686;9.738;2022-09-27T13:45:56;10.00;1.40
316;DHT22;14128;48.686;9.738;2022-09-27T13:48:27;10.20;1.40
316;DHT22;14128;48.686;9.738;2022-09-27T13:51:00;10.40;1.40
316;DHT22;14128;48.686;9.738;2022-09-27T13:53:30;10.50;1.40
316;DHT22;14128;48.686;9.738;2022-09-27T13:55:59;10.50;1.40
316;DHT22;14128;48.686;9.738;2022-09-27T13:58:33;10.50;1.40
316;DHT22;14128;48.686;9.738;2022-09-27T14:01:10;10.40;1.40
316;DHT22;14128;48.686;9.738;2022-09-27T14:03:56;10.50;1.40
316;DHT22;14128;48.686;9.738;2022-09-27T14:06:28;10.60;1.40
316;DHT22;14128;48.686;9.738;2022-09-27T14:08:57;10.60;1.40
316;DHT22;14128;48.686;9.738;2022-09-27T14:11:28;11.10;1.40
316;DHT22;14128;48.686;9.738;2022-09-27T14:13:56;11.40;1.40
316;DHT22;14128;48.686;9.738;2022-09-27T14:16:29;12.10;1.40
316;DHT22;14128;48.686;9.738;2022-09-27T14:18:58;12.30;1.40
316;DHT22;14128;48.686;9.738;2022-09-27T14:21:29;12.70;1.40
316;DHT22;14128;48.686;9.738;2022-09-27T14:24:22;13.30;1.40
316;DHT22;14128;48.686;9.738;2022-09-27T14:27:02;14.90;1.40
316;DHT22;14128;48.686;9.738;2022-09-27T14:29:31;14.30;1.40
316;DHT22;14128;48.686;9.738;2022-09-27T14:32:04;13.10;1.40
316;DHT22;14128;48.686;9.738;2022-09-27T14:34:33;12.80;1.40
316;DHT22;14128;48.686;9.738;2022-09-27T14:37:01;12.80;1.40
316;DHT22;14128;48.686;9.738;2022-09-27T14:39:52;11.40;1.40
316;DHT22;14128;48.686;9.738;2022-09-27T14:42:21;10.30;1.40
316;DHT22;14128;48.686;9.738;2022-09-27T14:44:49;10.00;1.40
316;DHT22;14128;48.686;9.738;2022-09-27T14:47:20;9.90;1.40
316;DHT22;14128;48.686;9.738;2022-09-27T14:49:49;10.00;1.40
316;DHT22;14128;48.686;9.738;2022-09-27T14:52:19;10.20;1.40
316;DHT22;14128;48.686;9.738;2022-09-27T14:55:14;11.10;1.40
316;DHT22;14128;48.686;9.738;2022-09-27T14:57:45;12.00;1.40
316;DHT22;14128;48.686;9.738;2022-09-27T15:00:16;12.30;1.40
316;DHT22;14128;48.686;9.738;2022-09-27T15:02:47;13.50;1.40
316;DHT22;14128;48.686;9.738;2022-09-27T15:05:17;13.50;1.40
316;DHT22;14128;48.686;9.738;2022-09-27T15:07:45;12.40;1.40
316;DHT22;14128;48.686;9.738;2022-09-27T15:10:14;11.60;1.40
316;DHT22;14128;48.686;9.738;2022-09-27T15:12:44;11.40;1.40
316;DHT22;14128;48.686;9.738;2022-09-27T15:15:15;11.20;1.40
316;DHT22;14128;48.686;9.738;2022-09-27T15:17:46;10.70;1.40
316;DHT22;14128;48.686;9.738;2022-09-27T15:20:22;10.70;1.40
316;DHT22;14128;48.686;9.738;2022-09-27T15:22:52;10.80;1.40
316;DHT22;14128;48.686;9.738;2022-09-27T15:25:23;10.40;1.40
316;DHT22;14128;48.686;9.738;2022-09-27T15:28:00;10.20;1.40
316;DHT22;14128;48.686;9.738;2022-09-27T15:30:32;10.30;1.40
316;DHT22;14128;48.686;9.738;2022-09-27T15:33:01;10.30;1.40
316;DHT22;14128;48.686;9.738;2022-09-27T15:35:30;10.40;1.40
316;DHT22;14128;48.686;9.738;2022-09-27T15:38:12;11.20;1.40
316;DHT22;14128;48.686;9.738;2022-09-27T15:41:08;12.50;1.40
316;DHT22;14128;48.686;9.738;2022-09-27T15:43:38;13.30;1.40
316;DHT22;14128;48.686;9.738;2022-09-27T15:46:26;14.30;1.40
316;DHT22;14128;48.686;9.738;2022-09-27T15:49:25;14.50;1.40
316;DHT22;14128;48.686;9.738;2022-09-27T15:51:53;15.10;1.40
316;DHT22;14128;48.686;9.738;2022-09-27T15:54:22;14.60;1.40
316;DHT22;14128;48.686;9.738;2022-09-27T15:56:50;13.00;1.40
316;DHT22;14128;48.686;9.738;2022-09-27T15:59:20;11.90;1.40
316;DHT22;14128;48.686;9.738;2022-09-27T16:01:48;11.20;1.40
316;DHT22;14128;48.686;9.738;2022-09-27T16:04:17;10.70;1.40
316;DHT22;14128;48.686;9.738;2022-09-27T16:06:45;10.50;1.40
316;DHT22;14128;48.686;9.738;2022-09-27T16:09:14;10.20;1.40
316;DHT22;14128;48.686;9.738;2022-09-27T16:11:44;10.10;1.40
316;DHT22;14128;48.686;9.738;2022-09-27T16:14:11;10.00;1.40
316;DHT22;14128;48.686;9.738;2022-09-27T16:16:41;10.00;1.40
316;DHT22;14128;48.686;9.738;2022-09-27T16:19:09;9.90;1.40
316;DHT22;14128;48.686;9.738;2022-09-27T16:21:36;9.80;1.40
316;DHT22;14128;48.686;9.738;2022-09-27T16:24:04;9.80;1.40
316;DHT22;14128;48.686;9.738;2022-09-27T16:26:32;9.70;1.40
316;DHT22;14128;48.686;9.738;2022-09-27T16:28:59;9.80;1.40
316;DHT22;14128;48.686;9.738;2022-09-27T16:31:26;9.80;1.40
316;DHT22;14128;48.686;9.738;2022-09-27T16:33:53;9.80;1.40
316;DHT22;14128;48.686;9.738;2022-09-27T16:36:20;9.80;1.40
316;DHT22;14128;48.686;9.738;2022-09-27T16:38:48;9.60;1.40
316;DHT22;14128;48.686;9.738;2022-09-27T16:41:17;9.50;1.40
316;DHT22;14128;48.686;9.738;2022-09-27T16:43:45;9.40;1.40
316;DHT22;14128;48.686;9.738;2022-09-27T16:46:13;9.30;1.40
316;DHT22;14128;48.686;9.738;2022-09-27T16:48:43;9.30;1.40
316;DHT22;14128;48.686;9.738;2022-09-27T16:51:12;9.40;1.40
316;DHT22;14128;48.686;9.738;2022-09-27T16:54:03;9.40;1.40
316;DHT22;14128;48.686;9.738;2022-09-27T16:56:33;9.40;1.40
316;DHT22;14128;48.686;9.738;2022-09-27T16:59:00;9.50;1.40
316;DHT22;14128;48.686;9.738;2022-09-27T17:01:28;9.50;1.40
316;DHT22;14128;48.686;9.738;2022-09-27T17:03:55;9.50;1.40
316;DHT22;14128;48.686;9.738;2022-09-27T17:06:24;9.50;1.40
316;DHT22;14128;48.686;9.738;2022-09-27T17:08:53;9.50;1.40
316;DHT22;14128;48.686;9.738;2022-09-27T17:11:20;9.50;1.40
316;DHT22;14128;48.686;9.738;2022-09-27T17:13:53;9.50;1.40
316;DHT22;14128;48.686;9.738;2022-09-27T17:16:20;9.50;1.40
316;DHT22;14128;48.686;9.738;2022-09-27T17:18:47;9.40;1.40
316;DHT22;14128;48.686;9.738;2022-09-27T17:21:14;9.40;1.40
316;DHT22;14128;48.686;9.738;2022-09-27T17:23:40;9.40;1.40
316;DHT22;14128;48.686;9.738;2022-09-27T17:26:19;9.40;1.40